Saturday, September 20, 2014, 3:54 AM EDT

KPTW, Pottstown Limerick Airport

Location: Royersford, PA, United States Lat: 40.233
Local Time: 3:54 AM EDT ( 7:54 GMT) Lon: -75.55
Time Zone: US/Eastern Elev: 291 ft

Show me the last for .
Show Decoded

2014-09-20 02:54 METAR KPTW 200654Z AUTO 00000KT 9SM BKN028 BKN065 OVC080 12/11 A3031 RMK AO2
                 SLP262 T01220111 =
2014-09-20 01:54 METAR KPTW 200554Z AUTO 00000KT 9SM SCT029 BKN034 OVC065 12/11 A3032 RMK AO2
                 SLP265 T01220111 10150 20111 56015 =
2014-09-20 01:40 METAR KPTW 200540Z AUTO 05003KT 9SM SCT026 OVC034 12/11 A3032 RMK AO2 T01220111
                 =
2014-09-20 00:54 METAR KPTW 200454Z AUTO 00000KT 9SM BKN023 OVC030 11/11 A3034 RMK AO2 SLP270
                 T01110106 402000089 =
2014-09-20 00:24 METAR KPTW 200424Z AUTO 00000KT 10SM SCT020 BKN025 12/11 A3034 RMK AO2 T01170106
                 =
2014-09-19 23:54 METAR KPTW 200354Z AUTO 00000KT 10SM FEW070 12/11 A3035 RMK AO2 SLP274 T01220106
                 =
2014-09-19 22:54 METAR KPTW 200254Z AUTO 00000KT 10SM CLR 13/11 A3036 RMK AO2 SLP279 T01280106
                 51009 =
2014-09-19 21:54 METAR KPTW 200154Z AUTO 00000KT 10SM CLR 13/11 A3036 RMK AO2 SLP279 T01330106 =
2014-09-19 20:54 METAR KPTW 200054Z AUTO VRB03KT 10SM CLR 14/11 A3036 RMK AO2 SLP277 T01390106 =
2014-09-19 19:54 METAR KPTW 192354Z AUTO 00000KT 10SM CLR 15/11 A3034 RMK AO2 SLP270 T01500106
                 10200 20150 53009 =
2014-09-19 18:54 METAR KPTW 192254Z AUTO VRB03KT 10SM CLR 17/11 A3032 RMK AO2 SLP264 T01670106 =
2014-09-19 17:54 METAR KPTW 192154Z AUTO VRB05KT 10SM BKN049 19/10 A3031 RMK AO2 SLP262 T01890100
                 =
2014-09-19 16:54 METAR KPTW 192054Z AUTO VRB04KT 10SM CLR 19/09 A3031 RMK AO2 SLP261 T01940094
                 56006 =
2014-09-19 15:54 METAR KPTW 191954Z AUTO VRB05KT 10SM SCT046 20/09 A3032 RMK AO2 SLP263 T02000094
                 =
2014-09-19 14:54 METAR KPTW 191854Z AUTO VRB05KT 10SM CLR 19/10 A3032 RMK AO2 SLP263 T01940100 =
2014-09-19 13:54 METAR KPTW 191754Z AUTO 09004KT 10SM SCT031 18/11 A3033 RMK AO2 SLP268 T01830106
                 10183 20117 50002 =
2014-09-19 13:45 METAR KPTW 191745Z AUTO 09005KT 10SM FEW029 18/11 A3033 RMK AO2 T01830106 =
2014-09-19 12:54 METAR KPTW 191654Z AUTO 08006KT 10SM OVC027 17/10 A3034 RMK AO2 SLP271 T01670100
                 =
2014-09-19 11:54 METAR KPTW 191554Z AUTO VRB05KT 10SM OVC027 17/10 A3033 RMK AO2 SLP269 T01670100
                 =
2014-09-19 11:23 METAR KPTW 191523Z AUTO 07006KT 10SM BKN027 17/10 A3032 RMK AO2 T01670100 =
2014-09-19 10:54 METAR KPTW 191454Z AUTO 07005KT 10SM FEW027 16/09 A3032 RMK AO2 SLP265 T01610094
                 51012 =
2014-09-19 09:54 METAR KPTW 191354Z AUTO 06007KT 10SM CLR 15/09 A3032 RMK AO2 SLP265 T01500089 =
2014-09-19 08:54 METAR KPTW 191254Z AUTO 04008KT 10SM CLR 13/08 A3031 RMK AO2 SLP260 T01330083 =
2014-09-19 06:54 METAR KPTW 191054Z AUTO 00000KT 10SM CLR 09/08 A3026 RMK AO2 SLP245 T00940078 =
2014-09-19 05:54 METAR KPTW 190954Z AUTO 05003KT 10SM CLR 10/08 A3024 RMK AO2 SLP237 T01000083 =
2014-09-19 04:54 METAR KPTW 190854Z AUTO 00000KT 10SM CLR 10/08 A3022 RMK AO2 SLP231 T01000083
                 53020 =

Support USWX by starting your Amazon purchase here.